PILOTS ONLINE: 328    ATC ONLINE: 38

KTOA

Zamperini Field

Location

City Torrance
Country  United States
Latitude 33° 48' 12" N
Longitude 118° 20' 23" W
Elevation 103 ft
Type Small Airport

Map

Weather

METAR
2014/08/21 02:55
KTOA 210255Z 29010KT 10SM FEW050 21/17 A2991 RMK LAST
TAF
No TAF available

Runways

11L/29R 5001 ft / 150 ft
11R/29L 3000 ft / 75 ft

Outbound flights

Callsign Flying to Pilot ATD/STD ETA Aircraft

Inbound flights

Callsign Flying from Pilot ATD ETA Aircraft